Time;durP1;ratioP1;P1;durP2;ratioP2;P2;SDS_P1;SDS_P2;PMS_P1;PMS_P2;Temp;Humidity;BMP_temperature;BMP_pressure;BME280_temperature;BME280_humidity;BME280_pressure;Samples;Min_cycle;Max_cycle;Signal;HPM_P1;HPM_P2
2022/12/09 00:00:31;;;;;;;18.57;12.70;;;3.10;99.90;;;;;;5058691;28;20179;-78
2022/12/09 00:02:57;;;;;;;22.53;12.33;;;3.10;99.90;;;;;;5077405;28;20175;-79
2022/12/09 00:05:23;;;;;;;20.33;12.73;;;3.10;99.90;;;;;;5077174;28;20175;-78
2022/12/09 00:07:48;;;;;;;23.60;13.53;;;3.10;99.90;;;;;;5081759;28;20245;-79
2022/12/09 00:10:14;;;;;;;21.07;13.77;;;3.10;99.90;;;;;;5082265;28;20190;-77
2022/12/09 00:12:40;;;;;;;19.20;13.17;;;3.10;99.90;;;;;;5061547;28;20175;-79
2022/12/09 00:15:06;;;;;;;21.63;13.47;;;3.10;99.90;;;;;;5077030;28;20179;-78
2022/12/09 00:17:31;;;;;;;24.90;13.50;;;3.10;99.90;;;;;;5076214;28;20198;-78
2022/12/09 00:19:57;;;;;;;23.17;12.80;;;3.10;99.90;;;;;;5071021;28;20186;-77
2022/12/09 00:22:24;;;;;;;22.63;14.63;;;3.10;99.90;;;;;;5071701;28;20179;-77
2022/12/09 00:24:50;;;;;;;23.50;13.77;;;3.10;99.90;;;;;;5073272;28;20178;-78
2022/12/09 00:27:15;;;;;;;22.40;14.37;;;3.10;99.90;;;;;;5068262;28;20237;-78
2022/12/09 00:29:41;;;;;;;21.73;14.33;;;3.10;99.90;;;;;;5082054;28;20175;-79
2022/12/09 00:32:06;;;;;;;19.33;12.83;;;3.10;99.90;;;;;;5081115;28;20175;-79
2022/12/09 00:34:32;;;;;;;23.00;13.53;;;3.10;99.90;;;;;;5060643;28;20558;-78
2022/12/09 00:36:57;;;;;;;19.03;14.23;;;3.10;99.90;;;;;;5077193;28;20213;-77
2022/12/09 00:39:26;;;;;;;18.13;13.33;;;3.10;99.90;;;;;;5076594;28;20199;-79
2022/12/09 00:41:51;;;;;;;21.97;13.37;;;3.20;99.90;;;;;;5076701;28;20634;-79
2022/12/09 00:44:17;;;;;;;25.80;15.17;;;3.20;99.90;;;;;;5067655;28;20201;-77
2022/12/09 00:46:42;;;;;;;23.87;14.00;;;3.20;99.90;;;;;;5079947;28;20276;-78
2022/12/09 00:49:09;;;;;;;26.77;16.17;;;3.10;99.90;;;;;;5075311;28;20225;-78
2022/12/09 00:51:35;;;;;;;24.10;16.00;;;3.10;99.90;;;;;;5074834;28;20179;-78
2022/12/09 00:54:00;;;;;;;29.57;17.40;;;3.10;99.90;;;;;;5056938;28;20210;-78
2022/12/09 00:56:28;;;;;;;27.40;17.17;;;3.10;99.90;;;;;;5060536;28;20202;-78
2022/12/09 00:58:54;;;;;;;26.63;16.13;;;3.10;99.90;;;;;;5056146;28;20186;-78
2022/12/09 01:01:20;;;;;;;27.50;17.10;;;3.10;99.90;;;;;;5075370;28;20171;-78
2022/12/09 01:03:46;;;;;;;23.87;15.50;;;3.10;99.90;;;;;;5075049;28;20179;-79
2022/12/09 01:06:16;;;;;;;27.13;16.53;;;3.10;99.90;;;;;;5074754;28;20201;-78
2022/12/09 01:08:41;;;;;;;30.00;18.63;;;3.10;99.90;;;;;;5074634;28;20210;-78
2022/12/09 01:11:14;;;;;;;32.23;18.33;;;3.10;99.90;;;;;;5074988;28;20186;-78
2022/12/09 01:13:40;;;;;;;28.63;18.77;;;3.00;99.90;;;;;;5074821;28;20242;-78
2022/12/09 01:16:16;;;;;;;37.13;19.50;;;2.90;99.90;;;;;;5074703;28;20669;-78
2022/12/09 01:18:42;;;;;;;32.63;19.33;;;3.00;99.90;;;;;;5074567;28;20186;-78
2022/12/09 01:21:07;;;;;;;30.67;19.40;;;3.00;99.90;;;;;;5074492;28;20171;-78
2022/12/09 01:23:33;;;;;;;31.07;17.83;;;3.00;99.90;;;;;;5074635;28;20182;-78
2022/12/09 01:25:58;;;;;;;34.50;19.33;;;3.00;99.90;;;;;;5074504;28;20187;-78
2022/12/09 01:28:24;;;;;;;30.10;19.37;;;3.00;99.90;;;;;;5055952;28;20580;-78
2022/12/09 01:30:49;;;;;;;29.93;18.67;;;3.00;99.90;;;;;;5074591;28;20186;-79
2022/12/09 01:33:15;;;;;;;29.53;18.87;;;3.00;99.90;;;;;;5074143;28;20182;-78
2022/12/09 01:35:41;;;;;;;28.57;17.00;;;3.00;99.90;;;;;;5074694;28;20209;-78
2022/12/09 01:38:06;;;;;;;31.90;18.33;;;3.00;99.90;;;;;;5056115;28;20214;-78
2022/12/09 01:40:32;;;;;;;26.03;17.37;;;3.00;99.90;;;;;;5073918;28;20240;-78
2022/12/09 01:42:57;;;;;;;26.97;17.13;;;3.10;99.90;;;;;;5074308;28;20286;-78
2022/12/09 01:45:29;;;;;;;30.70;18.77;;;3.00;99.90;;;;;;5056206;28;20175;-79
2022/12/09 01:48:10;;;;;;;31.67;18.33;;;3.00;99.90;;;;;;5074586;28;20201;-78
2022/12/09 01:50:38;;;;;;;31.20;17.33;;;3.10;99.90;;;;;;5074046;28;20258;-78
2022/12/09 01:53:05;;;;;;;30.50;18.80;;;3.10;99.90;;;;;;5074283;28;20186;-77
2022/12/09 01:55:31;;;;;;;31.77;18.77;;;3.00;99.90;;;;;;5056080;28;20203;-77
2022/12/09 01:57:57;;;;;;;27.30;16.93;;;3.10;99.90;;;;;;5074046;28;20749;-78
2022/12/09 02:00:23;;;;;;;28.67;17.43;;;3.00;99.90;;;;;;5055822;28;20174;-78
2022/12/09 02:02:49;;;;;;;30.53;17.33;;;3.00;99.90;;;;;;5073886;28;20171;-78
2022/12/09 02:05:15;;;;;;;29.23;17.33;;;3.00;99.90;;;;;;5055876;28;20638;-78
2022/12/09 02:07:40;;;;;;;24.00;17.40;;;3.00;99.90;;;;;;5055731;28;20191;-79
2022/12/09 02:10:12;;;;;;;23.83;16.10;;;3.00;99.90;;;;;;5074220;28;20661;-78
2022/12/09 02:12:42;;;;;;;26.90;16.60;;;3.00;99.90;;;;;;5059693;28;20167;-78
2022/12/09 02:15:12;;;;;;;27.47;17.60;;;3.00;99.90;;;;;;5077773;28;20155;-78
2022/12/09 02:17:42;;;;;;;30.03;16.67;;;3.00;99.90;;;;;;5077511;28;20190;-78
2022/12/09 02:20:27;;;;;;;27.57;17.77;;;3.00;99.90;;;;;;5077709;28;20646;-78
2022/12/09 02:23:12;;;;;;;30.17;16.73;;;3.00;99.90;;;;;;5059332;28;20171;-78
2022/12/09 02:25:40;;;;;;;28.03;16.33;;;3.00;99.90;;;;;;5077531;28;20645;-78
2022/12/09 02:28:17;;;;;;;25.37;16.43;;;2.90;99.90;;;;;;5059511;28;20199;-77
2022/12/09 02:31:20;;;;;;;28.27;17.43;;;3.00;99.90;;;;;;5059484;28;20174;-77
2022/12/09 02:34:09;;;;;;;24.00;15.83;;;3.00;99.90;;;;;;5070832;28;20242;-77
2022/12/09 02:37:13;;;;;;;24.57;16.33;;;3.00;99.90;;;;;;5077044;28;20210;-78
2022/12/09 02:40:10;;;;;;;23.17;16.23;;;3.00;99.90;;;;;;5059144;28;20744;-77
2022/12/09 02:42:37;;;;;;;28.77;16.80;;;3.00;99.90;;;;;;5076924;28;20673;-78
2022/12/09 02:45:06;;;;;;;26.87;16.47;;;3.00;99.90;;;;;;5077143;28;20175;-78
2022/12/09 02:47:35;;;;;;;25.60;16.73;;;3.00;99.90;;;;;;5076809;28;20198;-78
2022/12/09 02:50:04;;;;;;;21.90;15.47;;;3.00;99.90;;;;;;5080378;28;20171;-77
2022/12/09 02:52:31;;;;;;;25.17;14.50;;;3.00;99.90;;;;;;5086808;28;20175;-77
2022/12/09 02:55:00;;;;;;;20.97;13.77;;;3.00;99.90;;;;;;5087032;28;20171;-77
2022/12/09 02:57:29;;;;;;;23.83;14.63;;;3.00;99.90;;;;;;5087213;28;20194;-77
2022/12/09 02:59:54;;;;;;;25.07;14.33;;;3.00;99.90;;;;;;5069943;28;20226;-77
2022/12/09 03:02:32;;;;;;;26.80;14.77;;;3.00;99.90;;;;;;5066686;28;20650;-78
2022/12/09 03:05:26;;;;;;;27.47;15.10;;;3.00;99.90;;;;;;5078430;28;20162;-77
2022/12/09 03:08:20;;;;;;;19.23;12.57;;;3.00;99.90;;;;;;5059927;28;20256;-78
2022/12/09 03:10:58;;;;;;;21.97;13.97;;;3.00;99.90;;;;;;5059384;28;20175;-77
2022/12/09 03:13:48;;;;;;;23.40;13.53;;;2.90;99.90;;;;;;5076843;28;20189;-78
2022/12/09 03:16:18;;;;;;;18.87;13.40;;;2.90;99.90;;;;;;5077187;28;20658;-78
2022/12/09 03:18:49;;;;;;;16.97;12.13;;;3.00;99.90;;;;;;5081594;28;20208;-78
2022/12/09 03:21:19;;;;;;;16.80;10.73;;;3.00;99.90;;;;;;5062195;28;20217;-78
2022/12/09 03:23:45;;;;;;;17.33;10.63;;;3.00;99.90;;;;;;5061795;28;20171;-78
2022/12/09 03:26:14;;;;;;;18.23;11.27;;;3.00;99.90;;;;;;5080595;28;20178;-77
2022/12/09 03:28:46;;;;;;;23.13;11.20;;;3.00;99.90;;;;;;5081385;28;20199;-77
2022/12/09 03:31:16;;;;;;;21.17;11.57;;;3.00;99.90;;;;;;5079208;28;20163;-78
2022/12/09 03:33:45;;;;;;;19.37;11.00;;;3.00;99.90;;;;;;5058405;28;20167;-77
2022/12/09 03:36:13;;;;;;;18.00;10.57;;;3.00;99.90;;;;;;5075909;28;20206;-78
2022/12/09 03:38:41;;;;;;;21.23;11.43;;;3.00;99.90;;;;;;5075818;28;20199;-78
2022/12/09 03:41:14;;;;;;;17.77;11.13;;;3.00;99.90;;;;;;5075848;28;20193;-78
2022/12/09 03:43:46;;;;;;;15.47;10.90;;;3.00;99.90;;;;;;5057913;28;20177;-77
2022/12/09 03:46:12;;;;;;;20.60;11.00;;;2.90;99.90;;;;;;5057755;28;20182;-77
2022/12/09 03:48:37;;;;;;;19.53;10.90;;;3.00;99.90;;;;;;5057795;28;20574;-78
2022/12/09 03:51:12;;;;;;;17.93;10.43;;;3.00;99.90;;;;;;5075770;28;20258;-77
2022/12/09 03:53:45;;;;;;;14.50;9.73;;;3.00;99.90;;;;;;5058014;28;20205;-78
2022/12/09 03:56:21;;;;;;;19.00;10.67;;;2.90;99.90;;;;;;5076001;28;20282;-78
2022/12/09 03:58:55;;;;;;;16.57;9.80;;;2.80;99.90;;;;;;5075755;28;20653;-78
2022/12/09 04:01:23;;;;;;;18.53;10.73;;;2.80;99.90;;;;;;5075939;28;20619;-78
2022/12/09 04:03:51;;;;;;;14.13;10.60;;;2.80;99.90;;;;;;5057450;28;20168;-78
2022/12/09 04:06:16;;;;;;;12.80;9.10;;;2.80;99.90;;;;;;5075398;28;20167;-78
2022/12/09 04:08:42;;;;;;;15.03;9.00;;;2.80;99.90;;;;;;5075801;28;20178;-78
2022/12/09 04:11:08;;;;;;;13.67;9.20;;;2.80;99.90;;;;;;5075370;28;20175;-77
2022/12/09 04:13:33;;;;;;;13.20;9.10;;;2.80;99.90;;;;;;5057455;28;20241;-78
2022/12/09 04:15:59;;;;;;;14.90;8.83;;;2.70;99.90;;;;;;5075552;28;20191;-78
2022/12/09 04:18:25;;;;;;;13.60;8.23;;;2.70;99.90;;;;;;5057330;28;20511;-78
2022/12/09 04:20:50;;;;;;;13.67;8.70;;;2.60;99.90;;;;;;5075284;28;20170;-78
2022/12/09 04:23:16;;;;;;;17.43;8.77;;;2.50;99.90;;;;;;5075143;28;20167;-78
2022/12/09 04:25:41;;;;;;;13.03;8.40;;;2.50;99.90;;;;;;5075477;28;20178;-78
2022/12/09 04:28:07;;;;;;;12.63;8.50;;;2.50;99.90;;;;;;5057499;28;20282;-78
2022/12/09 04:30:33;;;;;;;13.10;9.07;;;2.50;99.90;;;;;;5075062;28;20225;-78
2022/12/09 04:32:59;;;;;;;14.17;8.83;;;2.40;99.90;;;;;;5074319;28;20249;-78
2022/12/09 04:35:25;;;;;;;14.10;8.57;;;2.40;99.90;;;;;;5075119;28;20202;-78
2022/12/09 04:37:50;;;;;;;12.40;8.63;;;2.30;99.90;;;;;;5074969;28;20268;-78
2022/12/09 04:40:16;;;;;;;12.83;8.13;;;2.30;99.90;;;;;;5057139;28;20163;-77
2022/12/09 04:42:41;;;;;;;12.00;8.37;;;2.30;99.90;;;;;;5075046;28;20178;-78
2022/12/09 04:45:08;;;;;;;10.37;7.53;;;2.20;99.90;;;;;;5075532;28;20517;-77
2022/12/09 04:47:33;;;;;;;11.83;8.67;;;2.20;99.90;;;;;;5056795;28;20697;-77
2022/12/09 04:49:59;;;;;;;12.67;8.67;;;2.10;99.90;;;;;;5074864;28;20163;-78
2022/12/09 04:52:25;;;;;;;13.87;9.10;;;2.10;99.90;;;;;;5057040;28;20171;-78
2022/12/09 04:54:50;;;;;;;13.00;8.67;;;2.00;99.90;;;;;;5074375;28;20167;-78
2022/12/09 04:57:17;;;;;;;13.23;8.67;;;2.00;99.90;;;;;;5074192;28;20209;-77
2022/12/09 04:59:42;;;;;;;15.97;8.97;;;2.00;99.90;;;;;;5074410;28;20175;-78
2022/12/09 05:02:08;;;;;;;13.37;8.90;;;2.00;99.90;;;;;;5074861;28;20167;-77
2022/12/09 05:04:34;;;;;;;13.80;8.63;;;1.90;99.90;;;;;;5075127;28;20660;-78
2022/12/09 05:06:59;;;;;;;17.20;9.23;;;1.90;99.90;;;;;;5074282;28;20190;-77
2022/12/09 05:09:25;;;;;;;17.70;9.63;;;1.90;99.90;;;;;;5074544;28;20722;-78
2022/12/09 05:11:53;;;;;;;14.43;9.40;;;1.90;99.90;;;;;;5056623;28;20653;-78
2022/12/09 05:14:18;;;;;;;16.83;8.93;;;1.80;99.90;;;;;;5074377;28;20209;-77
2022/12/09 05:16:44;;;;;;;13.00;9.67;;;1.80;99.90;;;;;;5074414;28;20218;-78
2022/12/09 05:19:10;;;;;;;14.30;8.73;;;1.80;99.90;;;;;;5056394;28;20170;-78
2022/12/09 05:21:36;;;;;;;14.07;8.73;;;1.80;99.90;;;;;;5056510;28;20260;-78
2022/12/09 05:24:02;;;;;;;15.97;9.37;;;1.80;99.90;;;;;;5074122;28;20179;-77
2022/12/09 05:26:28;;;;;;;17.27;8.90;;;1.80;99.90;;;;;;5073796;28;20638;-78
2022/12/09 05:28:53;;;;;;;14.17;7.63;;;1.80;99.90;;;;;;5055775;28;20266;-78
2022/12/09 05:31:22;;;;;;;16.60;8.63;;;1.80;99.90;;;;;;5074119;28;20175;-78
2022/12/09 05:33:48;;;;;;;12.80;8.33;;;1.90;99.90;;;;;;5074737;28;20186;-78
2022/12/09 05:36:17;;;;;;;11.87;7.80;;;1.90;99.90;;;;;;5077930;28;20198;-78
2022/12/09 05:38:43;;;;;;;12.03;8.30;;;1.90;99.90;;;;;;5085342;28;20214;-78
2022/12/09 05:41:08;;;;;;;18.00;7.63;;;1.90;99.90;;;;;;5070508;28;20206;-80
2022/12/09 05:43:35;;;;;;;11.70;8.10;;;1.80;99.90;;;;;;5070557;28;20182;-77
2022/12/09 05:46:03;;;;;;;19.03;8.50;;;1.90;99.90;;;;;;5072718;28;20600;-79
2022/12/09 05:48:28;;;;;;;14.10;9.20;;;1.90;99.90;;;;;;5077171;28;20206;-79
2022/12/09 05:50:57;;;;;;;14.17;8.80;;;1.90;99.90;;;;;;5058372;28;20281;-78
2022/12/09 05:53:23;;;;;;;11.73;8.50;;;1.90;99.90;;;;;;5073902;28;20186;-78
2022/12/09 05:55:49;;;;;;;11.90;9.13;;;1.90;99.90;;;;;;5074182;28;20202;-79
2022/12/09 05:58:14;;;;;;;14.87;9.00;;;1.90;99.90;;;;;;5085461;28;20202;-79
2022/12/09 06:00:40;;;;;;;14.13;9.43;;;1.90;99.90;;;;;;5085136;28;20182;-78
2022/12/09 06:03:05;;;;;;;15.67;9.70;;;1.90;99.90;;;;;;5086787;28;20544;-78
2022/12/09 06:05:31;;;;;;;15.67;8.60;;;1.90;99.90;;;;;;5092271;28;20583;-79
2022/12/09 06:07:57;;;;;;;14.10;9.53;;;1.90;99.90;;;;;;5092408;28;20703;-79
2022/12/09 06:10:23;;;;;;;13.97;9.07;;;1.80;99.90;;;;;;5077434;28;20185;-79
2022/12/09 06:12:52;;;;;;;14.00;9.73;;;1.90;99.90;;;;;;5062232;28;20186;-80
2022/12/09 06:15:17;;;;;;;14.63;9.87;;;1.90;99.90;;;;;;5076167;28;20178;-79
2022/12/09 06:17:43;;;;;;;16.93;10.23;;;1.90;99.90;;;;;;5094949;28;20602;-80
2022/12/09 06:20:08;;;;;;;13.07;8.47;;;1.90;99.90;;;;;;5089504;28;20183;-78
2022/12/09 06:22:34;;;;;;;15.13;9.47;;;1.90;99.90;;;;;;5085398;28;20189;-79
2022/12/09 06:24:59;;;;;;;12.20;8.50;;;1.90;99.90;;;;;;5092085;28;20182;-78
2022/12/09 06:27:25;;;;;;;14.17;9.03;;;1.90;99.90;;;;;;5092125;28;20561;-78
2022/12/09 06:29:50;;;;;;;14.70;9.00;;;1.90;99.90;;;;;;5075627;28;20652;-78
2022/12/09 06:32:16;;;;;;;12.60;9.33;;;1.90;99.90;;;;;;5063946;28;20190;-77
2022/12/09 06:34:42;;;;;;;18.93;8.93;;;1.90;99.90;;;;;;5095029;28;20183;-79
2022/12/09 06:37:07;;;;;;;16.53;9.10;;;2.00;99.90;;;;;;5095952;28;20218;-79
2022/12/09 06:39:32;;;;;;;17.43;10.30;;;2.00;99.90;;;;;;5102531;28;20205;-79
2022/12/09 06:41:58;;;;;;;17.83;10.30;;;1.90;99.90;;;;;;5102533;28;20192;-79
2022/12/09 06:44:23;;;;;;;20.53;9.97;;;1.90;99.90;;;;;;5093800;28;20179;-79
2022/12/09 06:46:49;;;;;;;14.93;10.33;;;1.90;99.90;;;;;;5077123;28;20194;-78
2022/12/09 06:49:15;;;;;;;18.17;10.43;;;1.90;99.90;;;;;;5077422;28;20182;-79
2022/12/09 06:51:40;;;;;;;15.43;10.07;;;1.90;99.90;;;;;;5078038;28;20229;-80
2022/12/09 06:54:08;;;;;;;15.93;10.30;;;1.90;99.90;;;;;;5077474;28;20194;-80
2022/12/09 06:56:34;;;;;;;16.30;9.80;;;1.80;99.90;;;;;;5083454;28;20281;-79
2022/12/09 06:58:59;;;;;;;14.60;9.83;;;1.80;99.90;;;;;;5086666;28;20202;-78
2022/12/09 07:01:25;;;;;;;14.63;9.93;;;1.70;99.90;;;;;;5091805;28;20555;-78
2022/12/09 07:03:54;;;;;;;15.23;10.47;;;1.70;99.90;;;;;;5072903;28;20198;-79
2022/12/09 07:06:31;;;;;;;19.87;10.03;;;1.70;99.90;;;;;;5094491;28;20181;-78
2022/12/09 07:08:59;;;;;;;22.30;8.83;;;1.60;99.90;;;;;;5093849;28;20174;-79
2022/12/09 07:11:25;;;;;;;16.77;10.53;;;1.50;99.90;;;;;;5091795;28;20172;-78
2022/12/09 07:13:51;;;;;;;13.80;9.83;;;1.40;99.90;;;;;;5109617;28;20265;-78
2022/12/09 07:16:17;;;;;;;15.43;9.10;;;1.40;99.90;;;;;;5079260;28;21404;-79
2022/12/09 07:18:42;;;;;;;13.07;8.90;;;1.30;99.90;;;;;;5083731;28;20194;-78
2022/12/09 07:21:10;;;;;;;13.07;9.50;;;1.20;99.90;;;;;;5070476;28;20178;-78
2022/12/09 07:23:36;;;;;;;12.73;8.93;;;1.10;99.90;;;;;;5087683;28;20173;-78
2022/12/09 07:26:04;;;;;;;13.33;8.93;;;1.10;99.90;;;;;;5091101;28;20506;-78
2022/12/09 07:28:30;;;;;;;13.40;8.97;;;1.00;99.90;;;;;;5100197;28;20695;-78
2022/12/09 07:30:56;;;;;;;16.00;9.40;;;1.00;99.90;;;;;;5113577;28;20173;-78
2022/12/09 07:33:21;;;;;;;15.53;8.80;;;1.00;99.90;;;;;;5074172;28;20182;-78
2022/12/09 07:35:47;;;;;;;16.67;9.60;;;0.90;99.90;;;;;;5091784;28;20234;-78
2022/12/09 07:38:12;;;;;;;14.93;10.07;;;0.80;99.90;;;;;;5078104;28;20209;-78
2022/12/09 07:40:39;;;;;;;15.80;9.20;;;0.80;99.90;;;;;;5078131;28;20165;-78
2022/12/09 07:43:06;;;;;;;13.63;9.90;;;0.70;99.90;;;;;;5096426;28;20163;-77
2022/12/09 07:45:35;;;;;;;15.43;9.80;;;0.70;99.90;;;;;;5097336;28;20313;-80
2022/12/09 07:48:01;;;;;;;15.23;9.83;;;0.80;99.90;;;;;;5078224;28;20264;-78
2022/12/09 07:50:26;;;;;;;14.67;10.30;;;0.70;99.90;;;;;;5078971;28;20645;-78
2022/12/09 07:52:52;;;;;;;15.90;9.70;;;0.90;99.90;;;;;;5097311;28;20193;-79
2022/12/09 07:55:17;;;;;;;13.77;9.97;;;0.70;99.90;;;;;;5079538;28;20227;-78
2022/12/09 07:57:43;;;;;;;15.77;9.60;;;0.70;99.90;;;;;;5081282;28;20209;-79
2022/12/09 08:00:09;;;;;;;15.63;9.87;;;0.70;99.90;;;;;;5099553;28;20170;-79
2022/12/09 08:02:34;;;;;;;19.43;10.80;;;0.70;99.90;;;;;;5081361;28;20586;-79
2022/12/09 08:05:01;;;;;;;15.30;9.60;;;0.70;99.90;;;;;;5100609;28;20170;-79
2022/12/09 08:07:27;;;;;;;21.17;10.27;;;0.70;99.90;;;;;;5099722;28;20189;-79
2022/12/09 08:09:55;;;;;;;16.90;10.90;;;0.70;99.90;;;;;;5097262;28;20250;-78
2022/12/09 08:12:21;;;;;;;21.40;9.77;;;0.80;99.90;;;;;;5095976;28;20575;-78
2022/12/09 08:14:47;;;;;;;18.97;10.90;;;0.80;99.90;;;;;;5095890;28;20215;-78
2022/12/09 08:17:12;;;;;;;16.30;10.30;;;0.80;99.90;;;;;;5095714;28;20216;-78
2022/12/09 08:19:38;;;;;;;16.80;10.63;;;0.80;99.90;;;;;;5097169;28;20537;-78
2022/12/09 08:22:03;;;;;;;16.07;10.77;;;0.90;99.90;;;;;;5078794;28;20235;-76
2022/12/09 08:24:29;;;;;;;20.30;11.53;;;0.90;99.90;;;;;;5076371;28;20243;-77
2022/12/09 08:26:54;;;;;;;17.80;10.80;;;0.90;99.90;;;;;;5094880;28;20225;-77
2022/12/09 08:29:20;;;;;;;20.27;10.63;;;1.00;99.90;;;;;;5095221;28;20184;-77
2022/12/09 08:31:45;;;;;;;16.57;10.17;;;1.00;99.90;;;;;;5095080;28;20174;-77
2022/12/09 08:34:12;;;;;;;15.83;10.43;;;1.00;99.90;;;;;;5094630;28;20192;-78
2022/12/09 08:36:37;;;;;;;17.93;10.23;;;1.10;99.90;;;;;;5094146;28;20275;-78
2022/12/09 08:39:04;;;;;;;20.07;11.47;;;1.10;99.90;;;;;;5094713;28;20629;-77
2022/12/09 08:41:35;;;;;;;15.77;9.93;;;1.10;99.90;;;;;;5094862;28;20194;-77
2022/12/09 08:44:16;;;;;;;16.07;11.07;;;1.20;99.90;;;;;;5094642;28;20204;-77
2022/12/09 08:46:46;;;;;;;16.60;10.83;;;1.20;99.90;;;;;;5094282;28;20568;-77
2022/12/09 08:49:16;;;;;;;22.47;11.10;;;1.20;99.90;;;;;;5094744;28;20158;-78
2022/12/09 08:51:42;;;;;;;18.73;11.60;;;1.30;99.90;;;;;;5096742;28;20173;-78
2022/12/09 08:54:08;;;;;;;17.93;10.27;;;1.30;99.90;;;;;;5094116;28;20245;-77
2022/12/09 08:56:34;;;;;;;19.23;11.67;;;1.30;99.90;;;;;;5096740;28;20194;-78
2022/12/09 08:58:59;;;;;;;17.77;10.57;;;1.40;99.90;;;;;;5096695;28;20167;-76
2022/12/09 09:01:33;;;;;;;21.67;11.00;;;1.40;99.90;;;;;;5076753;28;20170;-78
2022/12/09 09:04:01;;;;;;;21.97;11.73;;;1.40;99.90;;;;;;5095273;28;20147;-78
2022/12/09 09:06:26;;;;;;;19.60;11.57;;;1.50;99.90;;;;;;5094721;28;20578;-78
2022/12/09 09:08:54;;;;;;;21.63;12.53;;;1.50;99.90;;;;;;5093734;28;20220;-78
2022/12/09 09:11:20;;;;;;;20.77;12.60;;;1.50;99.90;;;;;;5095485;28;20529;-77
2022/12/09 09:13:47;;;;;;;22.27;13.20;;;1.60;99.90;;;;;;5076867;28;20168;-78
2022/12/09 09:16:15;;;;;;;19.57;11.33;;;1.60;99.90;;;;;;5076992;28;20197;-78
2022/12/09 09:18:41;;;;;;;22.00;12.27;;;1.60;99.90;;;;;;5094817;28;20172;-78
2022/12/09 09:21:09;;;;;;;21.10;13.97;;;1.70;99.90;;;;;;5095178;28;20249;-78
2022/12/09 09:23:35;;;;;;;22.53;13.17;;;1.70;99.90;;;;;;5093730;28;20170;-78
2022/12/09 09:26:01;;;;;;;22.07;13.10;;;1.70;99.90;;;;;;5077119;28;20224;-78
2022/12/09 09:28:26;;;;;;;22.80;13.33;;;1.80;99.90;;;;;;5076845;28;20634;-78
2022/12/09 09:31:03;;;;;;;21.23;13.43;;;1.80;99.90;;;;;;5094844;28;20637;-78
2022/12/09 09:33:29;;;;;;;20.90;13.83;;;1.80;99.90;;;;;;5094676;28;20173;-77
2022/12/09 09:36:00;;;;;;;23.57;14.67;;;1.90;99.90;;;;;;5095009;28;20672;-78
2022/12/09 09:38:28;;;;;;;25.63;16.70;;;1.90;99.90;;;;;;5094818;28;20209;-78
2022/12/09 09:40:54;;;;;;;26.93;16.40;;;1.90;99.90;;;;;;5093945;28;20181;-78
2022/12/09 09:43:24;;;;;;;29.67;16.33;;;2.00;99.90;;;;;;5094860;28;20167;-78
2022/12/09 09:45:53;;;;;;;31.67;16.03;;;2.00;99.90;;;;;;5093318;28;20218;-78
2022/12/09 09:48:22;;;;;;;29.13;17.37;;;2.00;99.90;;;;;;5094468;28;20193;-78
2022/12/09 09:50:56;;;;;;;30.47;18.23;;;2.00;99.90;;;;;;5095285;28;20170;-78
2022/12/09 09:53:29;;;;;;;30.57;17.80;;;2.10;99.90;;;;;;5076896;28;20286;-78
2022/12/09 09:56:18;;;;;;;24.70;15.83;;;2.10;99.90;;;;;;5076777;28;20211;-79
2022/12/09 09:59:13;;;;;;;26.33;16.23;;;2.20;99.90;;;;;;5098651;28;20170;-80
2022/12/09 10:01:39;;;;;;;28.00;16.57;;;2.20;99.90;;;;;;5084209;28;20197;-78
2022/12/09 10:04:24;;;;;;;30.70;17.30;;;2.30;99.90;;;;;;5079977;28;20224;-79
2022/12/09 10:07:21;;;;;;;31.53;18.43;;;2.30;99.90;;;;;;5078539;28;20575;-80
2022/12/09 10:10:08;;;;;;;30.07;18.10;;;2.40;99.90;;;;;;5072884;28;20186;-79
2022/12/09 10:12:40;;;;;;;34.83;18.63;;;2.40;99.90;;;;;;5097224;28;20260;-79
2022/12/09 10:15:13;;;;;;;28.40;17.97;;;2.40;99.90;;;;;;5078058;28;20652;-79
2022/12/09 10:17:50;;;;;;;35.10;20.07;;;2.50;99.90;;;;;;5095454;28;20681;-81
2022/12/09 10:20:27;;;;;;;34.27;19.20;;;2.50;99.90;;;;;;5099440;28;20226;-79
2022/12/09 10:22:59;;;;;;;37.33;19.70;;;2.50;99.90;;;;;;5102830;28;20192;-80
2022/12/09 10:25:31;;;;;;;31.53;18.90;;;2.60;99.90;;;;;;5104335;28;20197;-80
2022/12/09 10:28:11;;;;;;;35.07;18.67;;;2.60;99.90;;;;;;5104273;28;20194;-81
2022/12/09 10:30:37;;;;;;;32.73;18.70;;;2.60;99.90;;;;;;5085280;28;20167;-80
2022/12/09 10:33:02;;;;;;;33.90;19.57;;;2.60;99.90;;;;;;5089989;28;20170;-81
2022/12/09 10:35:29;;;;;;;32.43;20.57;;;2.70;99.90;;;;;;5090603;28;20542;-80
2022/12/09 10:38:05;;;;;;;33.43;20.23;;;2.70;99.90;;;;;;5105230;28;20293;-79
2022/12/09 10:40:48;;;;;;;33.07;19.27;;;2.80;99.90;;;;;;5107222;28;20150;-80
2022/12/09 10:43:42;;;;;;;37.17;19.70;;;2.80;99.90;;;;;;5089261;28;20592;-79
2022/12/09 10:46:11;;;;;;;33.53;18.97;;;2.80;99.90;;;;;;5119206;22;20245;-77
2022/12/09 10:48:50;;;;;;;33.90;19.80;;;2.90;99.90;;;;;;5078678;28;20588;-77
2022/12/09 10:51:21;;;;;;;32.73;18.83;;;2.90;99.90;;;;;;5097046;28;20162;-77
2022/12/09 10:53:51;;;;;;;32.27;18.80;;;2.80;99.90;;;;;;5098442;28;20155;-77
2022/12/09 10:56:27;;;;;;;32.37;19.13;;;2.90;99.90;;;;;;5082491;28;20673;-77
2022/12/09 10:59:19;;;;;;;30.50;18.87;;;2.90;99.90;;;;;;5082209;28;20188;-77
2022/12/09 11:02:00;;;;;;;31.87;18.97;;;3.00;99.90;;;;;;5097446;28;20241;-77
2022/12/09 11:04:31;;;;;;;28.57;16.83;;;3.10;99.90;;;;;;5079032;28;20194;-77
2022/12/09 11:07:02;;;;;;;33.60;17.33;;;3.10;99.90;;;;;;5097129;28;20163;-78
2022/12/09 11:09:36;;;;;;;28.73;17.33;;;3.20;99.90;;;;;;5099192;28;20161;-77
2022/12/09 11:12:04;;;;;;;30.07;17.37;;;3.20;99.90;;;;;;5096450;28;20162;-77
2022/12/09 11:14:47;;;;;;;22.57;14.63;;;3.20;99.90;;;;;;5077873;28;20194;-77
2022/12/09 11:17:16;;;;;;;25.50;16.00;;;3.20;99.90;;;;;;5077781;28;20558;-77
2022/12/09 11:19:43;;;;;;;25.13;13.10;;;3.30;99.90;;;;;;5096027;28;20170;-76
2022/12/09 11:22:27;;;;;;;26.03;14.43;;;3.30;99.90;;;;;;5078398;28;20268;-77
2022/12/09 11:24:54;;;;;;;27.03;13.87;;;3.30;99.90;;;;;;5096774;28;20188;-78
2022/12/09 11:27:33;;;;;;;22.03;14.70;;;3.30;99.90;;;;;;5097275;28;20190;-78
2022/12/09 11:30:43;;;;;;;21.23;13.40;;;3.30;99.90;;;;;;5097260;28;20197;-79
2022/12/09 11:33:12;;;;;;;25.80;14.37;;;3.40;99.90;;;;;;5074967;28;20189;-78
2022/12/09 11:35:44;;;;;;;26.50;13.03;;;3.40;99.90;;;;;;5096877;28;20263;-77
2022/12/09 11:38:21;;;;;;;20.10;11.60;;;3.40;99.90;;;;;;5097155;28;20194;-78
2022/12/09 11:41:08;;;;;;;20.17;12.10;;;3.50;99.90;;;;;;5097578;28;20158;-77
2022/12/09 11:43:43;;;;;;;18.23;11.17;;;3.50;99.90;;;;;;5078061;28;20166;-77
2022/12/09 11:46:12;;;;;;;13.57;9.13;;;3.50;99.90;;;;;;5078303;28;20201;-77
2022/12/09 11:48:47;;;;;;;16.67;10.20;;;3.40;99.90;;;;;;5097011;28;20166;-77
2022/12/09 11:51:26;;;;;;;14.43;8.77;;;3.50;99.90;;;;;;5079583;28;20162;-78
2022/12/09 11:54:00;;;;;;;16.77;8.67;;;3.50;99.90;;;;;;5079513;28;20162;-77
2022/12/09 11:56:27;;;;;;;12.23;8.10;;;3.50;99.90;;;;;;5079996;28;20281;-77
2022/12/09 11:59:08;;;;;;;11.60;7.83;;;3.60;99.90;;;;;;5099085;28;20223;-77
2022/12/09 12:02:09;;;;;;;15.97;8.50;;;3.60;99.90;;;;;;5079804;28;20154;-77
2022/12/09 12:05:06;;;;;;;12.03;7.33;;;3.50;99.90;;;;;;5105957;28;20277;-77
2022/12/09 12:07:47;;;;;;;9.30;6.73;;;3.50;99.90;;;;;;5083510;28;20194;-78
2022/12/09 12:10:33;;;;;;;10.23;7.03;;;3.50;99.90;;;;;;5096859;28;20161;-77
2022/12/09 12:13:03;;;;;;;12.10;7.07;;;3.50;99.90;;;;;;5096285;28;20706;-78
2022/12/09 12:15:43;;;;;;;12.93;7.87;;;3.40;99.90;;;;;;5082482;28;20198;-79
2022/12/09 12:18:16;;;;;;;11.67;7.63;;;3.50;99.90;;;;;;5081567;28;20166;-79
2022/12/09 12:20:56;;;;;;;13.80;7.63;;;3.50;99.90;;;;;;5099797;28;20154;-79
2022/12/09 12:23:43;;;;;;;12.07;7.60;;;3.50;99.90;;;;;;5082291;28;20690;-79
2022/12/09 12:26:19;;;;;;;9.97;6.97;;;3.60;99.90;;;;;;5080437;28;20232;-79
2022/12/09 12:28:59;;;;;;;13.37;7.33;;;3.60;99.90;;;;;;5099425;28;20641;-79
2022/12/09 12:31:44;;;;;;;12.53;6.73;;;3.60;99.90;;;;;;5099812;28;20706;-79
2022/12/09 12:34:30;;;;;;;14.23;7.50;;;3.60;99.90;;;;;;5099437;28;20173;-80
2022/12/09 12:37:24;;;;;;;10.93;7.87;;;3.60;99.90;;;;;;5098821;28;20185;-79
2022/12/09 12:40:18;;;;;;;15.97;8.73;;;3.60;99.90;;;;;;5098750;28;20151;-79
2022/12/09 12:46:32;;;;;;;12.63;7.80;;;3.50;99.90;;;;;;5098543;28;20339;-79
2022/12/09 12:49:14;;;;;;;12.77;7.27;;;3.50;99.90;;;;;;5052351;28;20189;-80
2022/12/09 12:52:07;;;;;;;11.57;8.10;;;3.50;99.90;;;;;;5098462;28;20588;-77
2022/12/09 12:54:56;;;;;;;11.97;7.57;;;3.50;99.90;;;;;;5076267;28;20272;-78
2022/12/09 12:57:44;;;;;;;12.93;8.43;;;3.50;99.90;;;;;;5095461;28;20185;-77
2022/12/09 13:00:19;;;;;;;10.80;7.27;;;3.40;99.90;;;;;;5096198;28;20280;-77